sensor_id;sensor_type;location;lat;lon;timestamp;pressure;altitude;pressure_sealevel;temperature;humidity
60089;BME280;45961;53.574;55.878;2022-09-17T00:00:12;99245.63;;;12.56;93.88
60089;BME280;45961;53.574;55.878;2022-09-17T00:01:15;99247.34;;;12.58;93.65
60089;BME280;45961;53.574;55.878;2022-09-17T00:02:17;99245.53;;;12.62;93.67
60089;BME280;45961;53.574;55.878;2022-09-17T00:03:18;99246.34;;;12.66;93.34
60089;BME280;45961;53.574;55.878;2022-09-17T00:04:18;99247.19;;;12.68;93.41
60089;BME280;45961;53.574;55.878;2022-09-17T00:05:21;99247.16;;;12.69;93.29
60089;BME280;45961;53.574;55.878;2022-09-17T00:06:24;99225.56;;;12.67;93.08
60089;BME280;45961;53.574;55.878;2022-09-17T00:07:25;99243.59;;;12.76;92.94
60089;BME280;45961;53.574;55.878;2022-09-17T00:08:28;99234.09;;;12.75;92.93
60089;BME280;45961;53.574;55.878;2022-09-17T00:09:29;99235.81;;;12.76;93.09
60089;BME280;45961;53.574;55.878;2022-09-17T00:10:31;99239.31;;;12.74;93.15
60089;BME280;45961;53.574;55.878;2022-09-17T00:11:35;99241.03;;;12.73;93.44
60089;BME280;45961;53.574;55.878;2022-09-17T00:12:36;99237.59;;;12.74;93.60
60089;BME280;45961;53.574;55.878;2022-09-17T00:13:38;99233.19;;;12.78;93.57
60089;BME280;45961;53.574;55.878;2022-09-17T00:14:39;99230.56;;;12.78;93.52
60089;BME280;45961;53.574;55.878;2022-09-17T00:15:42;99234.88;;;12.80;93.64
60089;BME280;45961;53.574;55.878;2022-09-17T00:16:46;99231.38;;;12.81;93.37
60089;BME280;45961;53.574;55.878;2022-09-17T00:17:48;99230.53;;;12.82;93.48
60089;BME280;45961;53.574;55.878;2022-09-17T00:18:53;99224.53;;;12.79;93.49
60089;BME280;45961;53.574;55.878;2022-09-17T00:19:55;99226.19;;;12.83;93.65
60089;BME280;45961;53.574;55.878;2022-09-17T00:20:56;99231.34;;;12.84;93.91
60089;BME280;45961;53.574;55.878;2022-09-17T00:21:57;99227.91;;;12.84;93.91
60089;BME280;45961;53.574;55.878;2022-09-17T00:22:58;99205.63;;;12.71;93.99
60089;BME280;45961;53.574;55.878;2022-09-17T00:24:02;99227.91;;;12.84;93.99
60089;BME280;45961;53.574;55.878;2022-09-17T00:25:04;99215.00;;;12.79;94.12
60089;BME280;45961;53.574;55.878;2022-09-17T00:26:06;99225.31;;;12.84;94.18
60089;BME280;45961;53.574;55.878;2022-09-17T00:27:07;99225.22;;;12.89;94.44
60089;BME280;45961;53.574;55.878;2022-09-17T00:28:08;99229.44;;;12.94;94.34
60089;BME280;45961;53.574;55.878;2022-09-17T00:29:10;99233.69;;;13.00;94.06
60089;BME280;45961;53.574;55.878;2022-09-17T00:30:12;99219.88;;;12.99;93.90
60089;BME280;45961;53.574;55.878;2022-09-17T00:31:13;99227.81;;;12.89;94.21
60089;BME280;45961;53.574;55.878;2022-09-17T00:32:14;99223.41;;;12.94;94.29
60089;BME280;45961;53.574;55.878;2022-09-17T00:33:16;99211.31;;;12.93;94.20
60089;BME280;45961;53.574;55.878;2022-09-17T00:34:17;99225.06;;;12.98;94.34
60089;BME280;45961;53.574;55.878;2022-09-17T00:35:18;99217.28;;;12.98;94.19
60089;BME280;45961;53.574;55.878;2022-09-17T00:36:20;99213.78;;;13.00;94.27
60089;BME280;45961;53.574;55.878;2022-09-17T00:37:22;99222.38;;;13.02;94.29
60089;BME280;45961;53.574;55.878;2022-09-17T00:38:23;99219.81;;;13.01;94.20
60089;BME280;45961;53.574;55.878;2022-09-17T00:39:24;99219.09;;;12.93;94.55
60089;BME280;45961;53.574;55.878;2022-09-17T00:40:25;99219.06;;;12.96;94.79
60089;BME280;45961;53.574;55.878;2022-09-17T00:41:28;99217.38;;;12.92;95.05
60089;BME280;45961;53.574;55.878;2022-09-17T00:42:30;99222.47;;;12.98;95.09
60089;BME280;45961;53.574;55.878;2022-09-17T00:43:37;99220.72;;;12.98;95.09
60089;BME280;45961;53.574;55.878;2022-09-17T00:44:50;99224.13;;;13.03;95.27
60089;BME280;45961;53.574;55.878;2022-09-17T00:45:52;99224.97;;;13.04;95.30
60089;BME280;45961;53.574;55.878;2022-09-17T00:46:53;99226.63;;;13.08;95.21
60089;BME280;45961;53.574;55.878;2022-09-17T00:48:00;99231.91;;;13.03;95.27
60089;BME280;45961;53.574;55.878;2022-09-17T00:49:06;99222.47;;;12.99;95.38
60089;BME280;45961;53.574;55.878;2022-09-17T00:50:38;99230.25;;;12.98;95.63
60089;BME280;45961;53.574;55.878;2022-09-17T00:51:44;99231.88;;;13.05;95.67
60089;BME280;45961;53.574;55.878;2022-09-17T00:52:56;99227.50;;;13.08;95.41
60089;BME280;45961;53.574;55.878;2022-09-17T00:54:01;99222.13;;;13.18;95.16
60089;BME280;45961;53.574;55.878;2022-09-17T00:55:31;99217.94;;;13.09;95.37
60089;BME280;45961;53.574;55.878;2022-09-17T00:56:35;99227.41;;;13.13;95.16
60089;BME280;45961;53.574;55.878;2022-09-17T00:57:37;99220.47;;;13.15;95.03
60089;BME280;45961;53.574;55.878;2022-09-17T00:58:37;99218.72;;;13.16;95.12
60089;BME280;45961;53.574;55.878;2022-09-17T00:59:38;99217.00;;;13.13;95.03
60089;BME280;45961;53.574;55.878;2022-09-17T01:00:40;99225.66;;;13.14;95.17
60089;BME280;45961;53.574;55.878;2022-09-17T01:01:41;99220.47;;;13.14;95.11
60089;BME280;45961;53.574;55.878;2022-09-17T01:02:42;99219.66;;;13.12;95.21
60089;BME280;45961;53.574;55.878;2022-09-17T01:03:43;99216.25;;;13.08;95.53
60089;BME280;45961;53.574;55.878;2022-09-17T01:04:44;99221.41;;;13.11;95.92
60089;BME280;45961;53.574;55.878;2022-09-17T01:08:00;99212.72;;;13.12;95.80
60089;BME280;45961;53.574;55.878;2022-09-17T01:09:24;99210.91;;;13.16;96.12
60089;BME280;45961;53.574;55.878;2022-09-17T01:10:36;99212.66;;;13.14;96.12
60089;BME280;45961;53.574;55.878;2022-09-17T01:11:59;99216.97;;;13.16;96.54
60089;BME280;45961;53.574;55.878;2022-09-17T01:14:31;99218.63;;;13.20;96.33
60089;BME280;45961;53.574;55.878;2022-09-17T01:16:19;99213.41;;;13.23;96.11
60089;BME280;45961;53.574;55.878;2022-09-17T01:21:21;99210.66;;;13.32;95.51
60089;BME280;45961;53.574;55.878;2022-09-17T01:22:30;99203.75;;;13.31;95.76
60089;BME280;45961;53.574;55.878;2022-09-17T01:24:44;99200.25;;;13.32;95.82
60089;BME280;45961;53.574;55.878;2022-09-17T01:27:05;99193.22;;;13.38;95.98
60089;BME280;45961;53.574;55.878;2022-09-17T01:28:33;99200.09;;;13.40;95.86
60089;BME280;45961;53.574;55.878;2022-09-17T01:34:43;99200.84;;;13.47;95.52
60089;BME280;45961;53.574;55.878;2022-09-17T01:37:13;99198.31;;;13.44;95.35
60089;BME280;45961;53.574;55.878;2022-09-17T01:38:26;99202.66;;;13.42;95.88
60089;BME280;45961;53.574;55.878;2022-09-17T01:40:01;99206.91;;;13.46;96.02
60089;BME280;45961;53.574;55.878;2022-09-17T01:41:19;99199.16;;;13.44;95.95
60089;BME280;45961;53.574;55.878;2022-09-17T01:42:29;99195.66;;;13.45;96.29
60089;BME280;45961;53.574;55.878;2022-09-17T01:43:43;99203.50;;;13.44;96.33
60089;BME280;45961;53.574;55.878;2022-09-17T01:46:29;99200.09;;;13.40;97.08
60089;BME280;45961;53.574;55.878;2022-09-17T01:48:47;99205.13;;;13.49;97.43
60089;BME280;45961;53.574;55.878;2022-09-17T01:49:52;99195.66;;;13.47;97.43
60089;BME280;45961;53.574;55.878;2022-09-17T01:51:19;99198.97;;;13.53;97.59
60089;BME280;45961;53.574;55.878;2022-09-17T01:52:23;99206.78;;;13.53;97.73
60089;BME280;45961;53.574;55.878;2022-09-17T01:53:30;99198.06;;;13.56;97.69
60089;BME280;45961;53.574;55.878;2022-09-17T01:54:40;99196.28;;;13.58;97.89
60089;BME280;45961;53.574;55.878;2022-09-17T01:55:44;99206.53;;;13.67;97.64
60089;BME280;45961;53.574;55.878;2022-09-17T01:57:03;99197.13;;;13.58;97.84
60089;BME280;45961;53.574;55.878;2022-09-17T01:58:32;99204.78;;;13.66;97.77
60089;BME280;45961;53.574;55.878;2022-09-17T01:59:42;99196.19;;;13.64;97.78
60089;BME280;45961;53.574;55.878;2022-09-17T02:00:55;99194.47;;;13.62;98.07
60089;BME280;45961;53.574;55.878;2022-09-17T02:02:22;99200.47;;;13.65;98.26
60089;BME280;45961;53.574;55.878;2022-09-17T02:03:52;99199.53;;;13.69;98.21
60089;BME280;45961;53.574;55.878;2022-09-17T02:04:58;99196.94;;;13.69;98.30
60089;BME280;45961;53.574;55.878;2022-09-17T02:06:09;99193.47;;;13.69;98.59
60089;BME280;45961;53.574;55.878;2022-09-17T02:07:17;99191.53;;;13.78;98.45
60089;BME280;45961;53.574;55.878;2022-09-17T02:08:25;99187.44;;;13.68;98.50
60089;BME280;45961;53.574;55.878;2022-09-17T02:09:37;99175.19;;;13.73;98.46
60089;BME280;45961;53.574;55.878;2022-09-17T02:11:19;99195.97;;;13.75;98.65
60089;BME280;45961;53.574;55.878;2022-09-17T02:12:18;99182.88;;;13.78;99.01
60089;BME280;45961;53.574;55.878;2022-09-17T02:13:53;99192.44;;;13.79;99.20
60089;BME280;45961;53.574;55.878;2022-09-17T02:14:57;99195.88;;;13.78;99.66
60089;BME280;45961;53.574;55.878;2022-09-17T02:16:23;99186.34;;;13.78;99.53
60089;BME280;45961;53.574;55.878;2022-09-17T02:17:38;99187.97;;;13.84;99.63
60089;BME280;45961;53.574;55.878;2022-09-17T02:18:53;99182.78;;;13.82;99.97
60089;BME280;45961;53.574;55.878;2022-09-17T02:19:55;99188.72;;;13.89;100.00
60089;BME280;45961;53.574;55.878;2022-09-17T02:22:40;99179.91;;;13.95;99.96
60089;BME280;45961;53.574;55.878;2022-09-17T02:24:01;99175.72;;;13.89;99.72
60089;BME280;45961;53.574;55.878;2022-09-17T02:26:14;99188.69;;;13.91;100.00
60089;BME280;45961;53.574;55.878;2022-09-17T02:27:56;99185.22;;;13.90;100.00
60089;BME280;45961;53.574;55.878;2022-09-17T02:29:05;99183.47;;;13.91;100.00
60089;BME280;45961;53.574;55.878;2022-09-17T02:30:07;99181.72;;;13.93;100.00
60089;BME280;45961;53.574;55.878;2022-09-17T02:31:08;99185.06;;;13.98;100.00
60089;BME280;45961;53.574;55.878;2022-09-17T02:32:11;99185.06;;;13.98;100.00
60089;BME280;45961;53.574;55.878;2022-09-17T02:33:13;99185.88;;;14.01;100.00
60089;BME280;45961;53.574;55.878;2022-09-17T02:34:15;99186.72;;;14.02;100.00
60089;BME280;45961;53.574;55.878;2022-09-17T02:35:16;99186.78;;;13.99;100.00
60089;BME280;45961;53.574;55.878;2022-09-17T02:36:18;99182.38;;;14.02;100.00
60089;BME280;45961;53.574;55.878;2022-09-17T02:37:19;99187.63;;;14.01;100.00
60089;BME280;45961;53.574;55.878;2022-09-17T02:38:24;99181.50;;;14.02;100.00
60089;BME280;45961;53.574;55.878;2022-09-17T02:39:25;99184.16;;;14.00;100.00
60089;BME280;45961;53.574;55.878;2022-09-17T02:40:30;99183.19;;;14.04;100.00
60089;BME280;45961;53.574;55.878;2022-09-17T02:43:27;99187.31;;;14.15;100.00
60089;BME280;45961;53.574;55.878;2022-09-17T02:48:04;99188.88;;;14.23;100.00
60089;BME280;45961;53.574;55.878;2022-09-17T02:53:59;99187.81;;;14.30;100.00
60089;BME280;45961;53.574;55.878;2022-09-17T02:55:17;99183.56;;;14.26;100.00
60089;BME280;45961;53.574;55.878;2022-09-17T03:00:12;99199.81;;;14.38;100.00
60089;BME280;45961;53.574;55.878;2022-09-17T03:01:43;99195.44;;;14.40;100.00
60089;BME280;45961;53.574;55.878;2022-09-17T03:02:52;99198.78;;;14.45;100.00
60089;BME280;45961;53.574;55.878;2022-09-17T03:04:00;99194.38;;;14.47;100.00
60089;BME280;45961;53.574;55.878;2022-09-17T03:05:03;99190.13;;;14.43;100.00
60089;BME280;45961;53.574;55.878;2022-09-17T03:06:06;99194.38;;;14.48;100.00
60089;BME280;45961;53.574;55.878;2022-09-17T03:07:11;99194.44;;;14.45;100.00
60089;BME280;45961;53.574;55.878;2022-09-17T03:08:13;99199.56;;;14.48;100.00
60089;BME280;45961;53.574;55.878;2022-09-17T03:09:15;99189.97;;;14.52;100.00
60089;BME280;45961;53.574;55.878;2022-09-17T03:10:17;99183.88;;;14.53;100.00
60089;BME280;45961;53.574;55.878;2022-09-17T03:11:19;99186.53;;;14.51;100.00
60089;BME280;45961;53.574;55.878;2022-09-17T03:12:21;99188.13;;;14.57;100.00
60089;BME280;45961;53.574;55.878;2022-09-17T03:13:24;99183.81;;;14.56;100.00
60089;BME280;45961;53.574;55.878;2022-09-17T03:14:25;99186.22;;;14.64;100.00
60089;BME280;45961;53.574;55.878;2022-09-17T03:15:26;99193.94;;;14.68;100.00
60089;BME280;45961;53.574;55.878;2022-09-17T03:16:27;99181.69;;;14.72;100.00
60089;BME280;45961;53.574;55.878;2022-09-17T03:17:29;99183.31;;;14.76;100.00
60089;BME280;45961;53.574;55.878;2022-09-17T03:18:33;99191.22;;;14.73;100.00
60089;BME280;45961;53.574;55.878;2022-09-17T03:19:34;99186.00;;;14.73;100.00
60089;BME280;45961;53.574;55.878;2022-09-17T03:20:35;99183.28;;;14.77;100.00
60089;BME280;45961;53.574;55.878;2022-09-17T03:21:36;99180.66;;;14.77;100.00
60089;BME280;45961;53.574;55.878;2022-09-17T03:22:37;99175.75;;;14.65;100.00
60089;BME280;45961;53.574;55.878;2022-09-17T03:23:38;99190.28;;;14.75;100.00
60089;BME280;45961;53.574;55.878;2022-09-17T03:24:39;99195.38;;;14.80;100.00
60089;BME280;45961;53.574;55.878;2022-09-17T03:25:40;99184.19;;;14.76;100.00
60089;BME280;45961;53.574;55.878;2022-09-17T03:26:44;99188.41;;;14.80;100.00
60089;BME280;45961;53.574;55.878;2022-09-17T03:27:47;99186.50;;;14.87;100.00
60089;BME280;45961;53.574;55.878;2022-09-17T03:28:51;99187.38;;;14.88;100.00
60089;BME280;45961;53.574;55.878;2022-09-17T03:29:51;99186.47;;;14.89;100.00
60089;BME280;45961;53.574;55.878;2022-09-17T03:30:53;99190.72;;;14.93;100.00
60089;BME280;45961;53.574;55.878;2022-09-17T03:31:53;99179.47;;;14.91;100.00
60089;BME280;45961;53.574;55.878;2022-09-17T03:32:54;99178.53;;;14.93;100.00
60089;BME280;45961;53.574;55.878;2022-09-17T03:33:55;99184.53;;;14.97;100.00
60089;BME280;45961;53.574;55.878;2022-09-17T03:34:56;99187.22;;;14.94;100.00
60089;BME280;45961;53.574;55.878;2022-09-17T03:35:57;99181.19;;;14.92;100.00
60089;BME280;45961;53.574;55.878;2022-09-17T03:36:58;99185.50;;;14.93;100.00
60089;BME280;45961;53.574;55.878;2022-09-17T03:37:59;99181.03;;;14.98;100.00
60089;BME280;45961;53.574;55.878;2022-09-17T03:39:01;99195.75;;;14.99;100.00
60089;BME280;45961;53.574;55.878;2022-09-17T03:40:02;99187.88;;;15.02;99.94
60089;BME280;45961;53.574;55.878;2022-09-17T03:41:05;99181.84;;;15.00;100.00
60089;BME280;45961;53.574;55.878;2022-09-17T03:42:13;99189.47;;;15.08;100.00
60089;BME280;45961;53.574;55.878;2022-09-17T03:43:13;99181.88;;;14.98;100.00
60089;BME280;45961;53.574;55.878;2022-09-17T03:44:14;99179.25;;;15.00;100.00
60089;BME280;45961;53.574;55.878;2022-09-17T03:45:18;99178.50;;;14.95;100.00
60089;BME280;45961;53.574;55.878;2022-09-17T03:46:19;99179.19;;;15.01;100.00
60089;BME280;45961;53.574;55.878;2022-09-17T03:47:20;99181.94;;;14.97;100.00
60089;BME280;45961;53.574;55.878;2022-09-17T03:48:21;99171.53;;;14.95;100.00
60089;BME280;45961;53.574;55.878;2022-09-17T03:49:22;99181.03;;;14.98;100.00
60089;BME280;45961;53.574;55.878;2022-09-17T03:50:27;99185.53;;;14.91;100.00
60089;BME280;45961;53.574;55.878;2022-09-17T03:51:28;99181.09;;;14.95;100.00
60089;BME280;45961;53.574;55.878;2022-09-17T03:52:29;99180.28;;;14.93;100.00
60089;BME280;45961;53.574;55.878;2022-09-17T03:53:33;99181.94;;;14.95;100.00
60089;BME280;45961;53.574;55.878;2022-09-17T03:54:36;99184.53;;;14.97;100.00
60089;BME280;45961;53.574;55.878;2022-09-17T03:55:39;99185.38;;;14.97;100.00
60089;BME280;45961;53.574;55.878;2022-09-17T03:56:40;99178.28;;;15.04;100.00
60089;BME280;45961;53.574;55.878;2022-09-17T03:57:42;99184.47;;;15.00;100.00
60089;BME280;45961;53.574;55.878;2022-09-17T03:58:42;99174.88;;;15.00;100.00
60089;BME280;45961;53.574;55.878;2022-09-17T03:59:43;99167.94;;;15.01;100.00
60089;BME280;45961;53.574;55.878;2022-09-17T04:00:46;99178.28;;;15.02;100.00
60089;BME280;45961;53.574;55.878;2022-09-17T04:01:55;99172.22;;;15.03;100.00
60089;BME280;45961;53.574;55.878;2022-09-17T04:02:57;99180.81;;;15.05;100.00
60089;BME280;45961;53.574;55.878;2022-09-17T04:03:59;99177.38;;;15.05;100.00
60089;BME280;45961;53.574;55.878;2022-09-17T04:05:00;99170.41;;;15.05;100.00
60089;BME280;45961;53.574;55.878;2022-09-17T04:06:02;99177.50;;;14.99;100.00
60089;BME280;45961;53.574;55.878;2022-09-17T04:07:03;99174.00;;;15.01;100.00
60089;BME280;45961;53.574;55.878;2022-09-17T04:08:04;99170.34;;;15.07;100.00
60089;BME280;45961;53.574;55.878;2022-09-17T04:09:05;99164.47;;;15.00;100.00
60089;BME280;45961;53.574;55.878;2022-09-17T04:10:07;99178.09;;;15.10;100.00
60089;BME280;45961;53.574;55.878;2022-09-17T04:11:08;99148.06;;;14.95;100.00
60089;BME280;45961;53.574;55.878;2022-09-17T04:12:09;99169.38;;;15.11;100.00
60089;BME280;45961;53.574;55.878;2022-09-17T04:13:12;99171.19;;;15.09;100.00
60089;BME280;45961;53.574;55.878;2022-09-17T04:14:13;99172.88;;;15.10;100.00
60089;BME280;45961;53.574;55.878;2022-09-17T04:15:14;99172.88;;;15.12;100.00
60089;BME280;45961;53.574;55.878;2022-09-17T04:16:15;99173.72;;;15.12;100.00
60089;BME280;45961;53.574;55.878;2022-09-17T04:17:16;99170.22;;;15.13;100.00
60089;BME280;45961;53.574;55.878;2022-09-17T04:18:17;99171.97;;;15.11;100.00
60089;BME280;45961;53.574;55.878;2022-09-17T04:19:18;99172.88;;;15.12;100.00
60089;BME280;45961;53.574;55.878;2022-09-17T04:20:19;99166.75;;;15.13;100.00
60089;BME280;45961;53.574;55.878;2022-09-17T04:21:20;99166.56;;;15.20;100.00
60089;BME280;45961;53.574;55.878;2022-09-17T04:22:21;99170.03;;;15.19;100.00
60089;BME280;45961;53.574;55.878;2022-09-17T04:23:24;99164.81;;;15.19;100.00
60089;BME280;45961;53.574;55.878;2022-09-17T04:24:26;99170.84;;;15.21;100.00
60089;BME280;45961;53.574;55.878;2022-09-17T04:25:27;99159.50;;;15.24;100.00
60089;BME280;45961;53.574;55.878;2022-09-17T04:26:28;99163.75;;;15.28;100.00
60089;BME280;45961;53.574;55.878;2022-09-17T04:27:29;99161.22;;;15.23;100.00
60089;BME280;45961;53.574;55.878;2022-09-17T04:28:30;99153.47;;;15.22;100.00
60089;BME280;45961;53.574;55.878;2022-09-17T04:29:31;99166.25;;;15.31;100.00
60089;BME280;45961;53.574;55.878;2022-09-17T04:30:33;99173.00;;;15.38;100.00
60089;BME280;45961;53.574;55.878;2022-09-17T04:31:35;99170.47;;;15.35;100.00
60089;BME280;45961;53.574;55.878;2022-09-17T04:32:36;99162.63;;;15.37;99.81
60089;BME280;45961;53.574;55.878;2022-09-17T04:33:37;99168.50;;;15.43;99.55
60089;BME280;45961;53.574;55.878;2022-09-17T04:34:41;99168.75;;;15.36;99.76
60089;BME280;45961;53.574;55.878;2022-09-17T04:35:43;99171.25;;;15.39;99.98
60089;BME280;45961;53.574;55.878;2022-09-17T04:36:44;99170.47;;;15.37;100.00
60089;BME280;45961;53.574;55.878;2022-09-17T04:37:56;99165.25;;;15.37;100.00
60089;BME280;45961;53.574;55.878;2022-09-17T04:38:57;99171.34;;;15.36;100.00
60089;BME280;45961;53.574;55.878;2022-09-17T04:39:58;99166.88;;;15.39;100.00
60089;BME280;45961;53.574;55.878;2022-09-17T04:40:59;99167.00;;;15.36;99.97
60089;BME280;45961;53.574;55.878;2022-09-17T04:42:00;99162.63;;;15.37;100.00
60089;BME280;45961;53.574;55.878;2022-09-17T04:43:01;99169.25;;;15.48;99.87
60089;BME280;45961;53.574;55.878;2022-09-17T04:44:03;99155.59;;;15.39;100.00
60089;BME280;45961;53.574;55.878;2022-09-17T04:45:24;99172.88;;;15.43;99.79
60089;BME280;45961;53.574;55.878;2022-09-17T04:46:25;99167.88;;;15.35;99.97
60089;BME280;45961;53.574;55.878;2022-09-17T04:47:25;99170.47;;;15.35;100.00
60089;BME280;45961;53.574;55.878;2022-09-17T04:48:26;99153.53;;;15.19;100.00
60089;BME280;45961;53.574;55.878;2022-09-17T04:49:33;99165.38;;;15.30;100.00
60089;BME280;45961;53.574;55.878;2022-09-17T04:50:34;99171.25;;;15.39;100.00
60089;BME280;45961;53.574;55.878;2022-09-17T04:51:35;99165.97;;;15.42;100.00
60089;BME280;45961;53.574;55.878;2022-09-17T04:52:41;99161.53;;;15.45;100.00
60089;BME280;45961;53.574;55.878;2022-09-17T04:53:45;99168.50;;;15.43;100.00
60089;BME280;45961;53.574;55.878;2022-09-17T04:54:50;99176.31;;;15.45;99.92
60089;BME280;45961;53.574;55.878;2022-09-17T04:56:11;99157.22;;;15.44;99.81
60089;BME280;45961;53.574;55.878;2022-09-17T04:57:14;99159.19;;;15.35;99.96
60089;BME280;45961;53.574;55.878;2022-09-17T04:58:15;99164.19;;;15.42;100.00
60089;BME280;45961;53.574;55.878;2022-09-17T04:59:16;99162.56;;;15.40;100.00
60089;BME280;45961;53.574;55.878;2022-09-17T05:00:18;99170.25;;;15.44;100.00
60089;BME280;45961;53.574;55.878;2022-09-17T05:01:19;99155.78;;;15.33;100.00
60089;BME280;45961;53.574;55.878;2022-09-17T05:02:20;99160.16;;;15.32;100.00
60089;BME280;45961;53.574;55.878;2022-09-17T05:03:21;99162.56;;;15.40;100.00
60089;BME280;45961;53.574;55.878;2022-09-17T05:04:22;99158.31;;;15.36;100.00
60089;BME280;45961;53.574;55.878;2022-09-17T05:05:23;99171.22;;;15.40;100.00
60089;BME280;45961;53.574;55.878;2022-09-17T05:06:24;99169.63;;;15.35;100.00
60089;BME280;45961;53.574;55.878;2022-09-17T05:07:25;99174.00;;;15.34;100.00
60089;BME280;45961;53.574;55.878;2022-09-17T05:08:27;99167.78;;;15.40;100.00
60089;BME280;45961;53.574;55.878;2022-09-17T05:09:29;99166.38;;;15.26;100.00
60089;BME280;45961;53.574;55.878;2022-09-17T05:10:30;99165.97;;;15.42;100.00
60089;BME280;45961;53.574;55.878;2022-09-17T05:11:31;99171.09;;;15.45;100.00
60089;BME280;45961;53.574;55.878;2022-09-17T05:12:32;99178.91;;;15.45;100.00
60089;BME280;45961;53.574;55.878;2022-09-17T05:13:33;99174.50;;;15.47;100.00
60089;BME280;45961;53.574;55.878;2022-09-17T05:14:34;99177.13;;;15.47;100.00
60089;BME280;45961;53.574;55.878;2022-09-17T05:15:35;99167.66;;;15.43;100.00
60089;BME280;45961;53.574;55.878;2022-09-17T05:16:36;99182.38;;;15.45;100.00
60089;BME280;45961;53.574;55.878;2022-09-17T05:17:38;99172.75;;;15.47;100.00
60089;BME280;45961;53.574;55.878;2022-09-17T05:18:39;99174.50;;;15.47;100.00
60089;BME280;45961;53.574;55.878;2022-09-17T05:19:40;99174.69;;;15.41;100.00
60089;BME280;45961;53.574;55.878;2022-09-17T05:20:42;99178.19;;;15.40;100.00
60089;BME280;45961;53.574;55.878;2022-09-17T05:21:42;99169.16;;;15.51;100.00
60089;BME280;45961;53.574;55.878;2022-09-17T05:22:46;99170.03;;;15.52;100.00
60089;BME280;45961;53.574;55.878;2022-09-17T05:23:47;99168.16;;;15.55;100.00
60089;BME280;45961;53.574;55.878;2022-09-17T05:24:48;99167.38;;;15.53;100.00
60089;BME280;45961;53.574;55.878;2022-09-17T05:25:49;99169.06;;;15.54;100.00
60089;BME280;45961;53.574;55.878;2022-09-17T05:26:52;99148.34;;;15.50;100.00
60089;BME280;45961;53.574;55.878;2022-09-17T05:27:53;99164.69;;;15.57;100.00
60089;BME280;45961;53.574;55.878;2022-09-17T05:28:54;99165.31;;;15.66;100.00
60089;BME280;45961;53.574;55.878;2022-09-17T05:29:55;99163.59;;;15.65;100.00
60089;BME280;45961;53.574;55.878;2022-09-17T05:30:59;99162.75;;;15.63;100.00
60089;BME280;45961;53.574;55.878;2022-09-17T05:32:00;99166.94;;;15.70;100.00
60089;BME280;45961;53.574;55.878;2022-09-17T05:33:04;99169.53;;;15.70;99.86
60089;BME280;45961;53.574;55.878;2022-09-17T05:34:05;99163.59;;;15.65;99.93
60089;BME280;45961;53.574;55.878;2022-09-17T05:35:07;99165.47;;;15.60;100.00
60089;BME280;45961;53.574;55.878;2022-09-17T05:36:08;99158.38;;;15.64;100.00
60089;BME280;45961;53.574;55.878;2022-09-17T05:37:10;99160.09;;;15.66;100.00
60089;BME280;45961;53.574;55.878;2022-09-17T05:38:12;99153.16;;;15.65;100.00
60089;BME280;45961;53.574;55.878;2022-09-17T05:39:13;99160.13;;;15.65;100.00
60089;BME280;45961;53.574;55.878;2022-09-17T05:40:18;99164.47;;;15.64;100.00
60089;BME280;45961;53.574;55.878;2022-09-17T05:41:20;99158.31;;;15.68;100.00
60089;BME280;45961;53.574;55.878;2022-09-17T05:42:21;99161.78;;;15.67;100.00
60089;BME280;45961;53.574;55.878;2022-09-17T05:43:22;99164.09;;;15.78;100.00
60089;BME280;45961;53.574;55.878;2022-09-17T05:44:23;99167.88;;;15.68;100.00
60089;BME280;45961;53.574;55.878;2022-09-17T05:45:25;99168.59;;;15.73;100.00
60089;BME280;45961;53.574;55.878;2022-09-17T05:46:28;99155.56;;;15.73;100.00
60089;BME280;45961;53.574;55.878;2022-09-17T05:47:29;99163.31;;;15.74;100.00
60089;BME280;45961;53.574;55.878;2022-09-17T05:48:30;99140.31;;;15.58;100.00
60089;BME280;45961;53.574;55.878;2022-09-17T05:49:31;99164.94;;;15.78;100.00
60089;BME280;45961;53.574;55.878;2022-09-17T05:50:32;99155.13;;;15.87;100.00
60089;BME280;45961;53.574;55.878;2022-09-17T05:51:33;99159.72;;;15.78;100.00
60089;BME280;45961;53.574;55.878;2022-09-17T05:52:34;99155.41;;;15.77;99.90
60089;BME280;45961;53.574;55.878;2022-09-17T05:53:36;99151.13;;;15.75;99.95
60089;BME280;45961;53.574;55.878;2022-09-17T05:54:37;99160.00;;;15.69;100.00
60089;BME280;45961;53.574;55.878;2022-09-17T05:55:39;99167.69;;;15.74;100.00
60089;BME280;45961;53.574;55.878;2022-09-17T05:56:40;99164.16;;;15.76;100.00
60089;BME280;45961;53.574;55.878;2022-09-17T05:57:41;99159.94;;;15.72;100.00
60089;BME280;45961;53.574;55.878;2022-09-17T05:58:44;99156.41;;;15.73;100.00
60089;BME280;45961;53.574;55.878;2022-09-17T05:59:45;99162.34;;;15.78;100.00
60089;BME280;45961;53.574;55.878;2022-09-17T06:00:50;99167.53;;;15.80;100.00
60089;BME280;45961;53.574;55.878;2022-09-17T06:01:51;99146.22;;;15.64;100.00
60089;BME280;45961;53.574;55.878;2022-09-17T06:02:55;99164.31;;;15.70;100.00
60089;BME280;45961;53.574;55.878;2022-09-17T06:03:57;99160.78;;;15.73;100.00
60089;BME280;45961;53.574;55.878;2022-09-17T06:05:01;99165.78;;;15.81;100.00
60089;BME280;45961;53.574;55.878;2022-09-17T06:06:03;99170.09;;;15.82;100.00
60089;BME280;45961;53.574;55.878;2022-09-17T06:07:05;99168.38;;;15.81;100.00
60089;BME280;45961;53.574;55.878;2022-09-17T06:08:08;99174.03;;;15.95;99.67
60089;BME280;45961;53.574;55.878;2022-09-17T06:09:11;99171.50;;;15.92;99.47
60089;BME280;45961;53.574;55.878;2022-09-17T06:10:12;99170.78;;;15.88;99.35